sensor_id;sensor_type;location;lat;lon;timestamp;pressure;altitude;pressure_sealevel;temperature;humidity
66396;BME280;53207;51.378;-1.342;2023-04-02T00:01:44;100495.84;;;20.40;34.35
66396;BME280;53207;51.378;-1.342;2023-04-02T00:04:15;100502.34;;;20.39;34.34
66396;BME280;53207;51.378;-1.342;2023-04-02T00:06:43;100500.13;;;19.87;34.41
66396;BME280;53207;51.378;-1.342;2023-04-02T00:09:23;100499.69;;;20.28;34.45
66396;BME280;53207;51.378;-1.342;2023-04-02T00:11:52;100507.63;;;20.22;34.48
66396;BME280;53207;51.378;-1.342;2023-04-02T00:14:24;100509.91;;;20.29;34.40
66396;BME280;53207;51.378;-1.342;2023-04-02T00:16:53;100512.25;;;20.32;34.33
66396;BME280;53207;51.378;-1.342;2023-04-02T00:19:28;100520.94;;;20.21;34.45
66396;BME280;53207;51.378;-1.342;2023-04-02T00:21:57;100520.02;;;20.16;34.52
66396;BME280;53207;51.378;-1.342;2023-04-02T00:24:26;100520.85;;;20.12;34.55
66396;BME280;53207;51.378;-1.342;2023-04-02T00:26:54;100524.71;;;20.41;34.76
66396;BME280;53207;51.378;-1.342;2023-04-02T00:29:22;100527.10;;;19.97;34.71
66396;BME280;53207;51.378;-1.342;2023-04-02T00:31:51;100532.47;;;20.31;34.61
66396;BME280;53207;51.378;-1.342;2023-04-02T00:34:22;100534.78;;;20.24;34.67
66396;BME280;53207;51.378;-1.342;2023-04-02T00:36:51;100537.77;;;19.95;34.70
66396;BME280;53207;51.378;-1.342;2023-04-02T00:39:22;100540.78;;;19.84;34.82
66396;BME280;53207;51.378;-1.342;2023-04-02T00:41:52;100542.57;;;20.10;34.78
66396;BME280;53207;51.378;-1.342;2023-04-02T00:44:20;100550.04;;;20.22;34.88
66396;BME280;53207;51.378;-1.342;2023-04-02T00:46:49;100552.69;;;19.78;34.81
66396;BME280;53207;51.378;-1.342;2023-04-02T00:49:22;100558.03;;;19.86;34.73
66396;BME280;53207;51.378;-1.342;2023-04-02T00:51:55;100559.07;;;19.75;34.82
66396;BME280;53207;51.378;-1.342;2023-04-02T00:54:26;100561.56;;;20.08;34.75
66396;BME280;53207;51.378;-1.342;2023-04-02T00:56:56;100566.76;;;19.93;34.60
66396;BME280;53207;51.378;-1.342;2023-04-02T00:59:28;100570.31;;;19.60;34.92
66396;BME280;53207;51.378;-1.342;2023-04-02T01:02:18;100573.53;;;20.03;34.73
66396;BME280;53207;51.378;-1.342;2023-04-02T01:04:52;100580.11;;;19.97;34.49
66396;BME280;53207;51.378;-1.342;2023-04-02T01:07:27;100580.12;;;20.08;34.63
66396;BME280;53207;51.378;-1.342;2023-04-02T01:10:12;100581.44;;;19.78;34.64
66396;BME280;53207;51.378;-1.342;2023-04-02T01:12:50;100584.28;;;20.13;34.54
66396;BME280;53207;51.378;-1.342;2023-04-02T01:15:24;100585.66;;;19.90;34.48
66396;BME280;53207;51.378;-1.342;2023-04-02T01:18:09;100592.52;;;19.97;34.37
66396;BME280;53207;51.378;-1.342;2023-04-02T01:20:58;100601.08;;;20.10;34.52
66396;BME280;53207;51.378;-1.342;2023-04-02T01:23:37;100599.65;;;19.74;34.60
66396;BME280;53207;51.378;-1.342;2023-04-02T01:26:13;100604.50;;;19.90;34.42
66396;BME280;53207;51.378;-1.342;2023-04-02T01:28:53;100605.87;;;19.93;34.37
66396;BME280;53207;51.378;-1.342;2023-04-02T01:31:23;100608.81;;;20.15;34.62
66396;BME280;53207;51.378;-1.342;2023-04-02T01:33:51;100608.88;;;20.01;34.23
66396;BME280;53207;51.378;-1.342;2023-04-02T01:36:25;100609.80;;;19.95;34.60
66396;BME280;53207;51.378;-1.342;2023-04-02T01:39:01;100609.39;;;19.90;34.35
66396;BME280;53207;51.378;-1.342;2023-04-02T01:41:37;100609.28;;;19.63;34.62
66396;BME280;53207;51.378;-1.342;2023-04-02T01:44:08;100613.67;;;19.92;34.30
66396;BME280;53207;51.378;-1.342;2023-04-02T01:46:40;100619.67;;;19.91;34.31
66396;BME280;53207;51.378;-1.342;2023-04-02T01:49:12;100618.32;;;19.90;34.29
66396;BME280;53207;51.378;-1.342;2023-04-02T01:51:43;100620.95;;;19.88;34.30
66396;BME280;53207;51.378;-1.342;2023-04-02T01:54:13;100623.28;;;19.83;34.32
66396;BME280;53207;51.378;-1.342;2023-04-02T01:56:43;100620.02;;;19.78;34.38
66396;BME280;53207;51.378;-1.342;2023-04-02T01:59:11;100626.97;;;19.75;34.38
66396;BME280;53207;51.378;-1.342;2023-04-02T02:01:42;100631.55;;;19.98;34.45
66396;BME280;53207;51.378;-1.342;2023-04-02T02:04:14;100639.10;;;19.80;34.35
66396;BME280;53207;51.378;-1.342;2023-04-02T02:06:42;100648.63;;;19.75;34.41
66396;BME280;53207;51.378;-1.342;2023-04-02T02:09:16;100648.12;;;19.67;34.49
66396;BME280;53207;51.378;-1.342;2023-04-02T02:11:44;100651.68;;;19.78;34.34
66396;BME280;53207;51.378;-1.342;2023-04-02T02:14:16;100652.19;;;19.78;34.35
66396;BME280;53207;51.378;-1.342;2023-04-02T02:16:45;100650.96;;;19.66;34.45
66396;BME280;53207;51.378;-1.342;2023-04-02T02:19:21;100654.09;;;19.97;34.38
66396;BME280;53207;51.378;-1.342;2023-04-02T02:21:51;100655.52;;;19.92;34.46
66396;BME280;53207;51.378;-1.342;2023-04-02T02:24:21;100659.43;;;19.75;34.33
66396;BME280;53207;51.378;-1.342;2023-04-02T02:26:55;100665.04;;;19.61;34.53
66396;BME280;53207;51.378;-1.342;2023-04-02T02:29:25;100664.61;;;20.05;34.26
66396;BME280;53207;51.378;-1.342;2023-04-02T02:31:55;100665.76;;;19.71;34.34
66396;BME280;53207;51.378;-1.342;2023-04-02T02:34:30;100663.94;;;19.61;34.46
66396;BME280;53207;51.378;-1.342;2023-04-02T02:37:03;100665.16;;;19.89;34.45
66396;BME280;53207;51.378;-1.342;2023-04-02T02:39:36;100664.12;;;19.99;34.31
66396;BME280;53207;51.378;-1.342;2023-04-02T02:42:09;100668.41;;;20.10;34.41
66396;BME280;53207;51.378;-1.342;2023-04-02T02:44:43;100674.71;;;19.96;34.32
66396;BME280;53207;51.378;-1.342;2023-04-02T02:47:14;100678.19;;;19.72;34.56
66396;BME280;53207;51.378;-1.342;2023-04-02T02:49:44;100680.80;;;19.61;34.40
66396;BME280;53207;51.378;-1.342;2023-04-02T02:52:16;100686.79;;;19.90;34.36
66396;BME280;53207;51.378;-1.342;2023-04-02T02:54:47;100694.10;;;19.67;34.31
66396;BME280;53207;51.378;-1.342;2023-04-02T02:57:18;100697.27;;;19.63;34.35
66396;BME280;53207;51.378;-1.342;2023-04-02T02:59:49;100700.10;;;19.60;34.40
66396;BME280;53207;51.378;-1.342;2023-04-02T03:02:17;100705.30;;;19.51;34.49
66396;BME280;53207;51.378;-1.342;2023-04-02T03:04:46;100710.98;;;19.79;34.69
66396;BME280;53207;51.378;-1.342;2023-04-02T03:07:15;100712.79;;;20.09;34.36
66396;BME280;53207;51.378;-1.342;2023-04-02T03:09:48;100717.62;;;19.40;34.57
66396;BME280;53207;51.378;-1.342;2023-04-02T03:12:30;100719.65;;;19.84;34.36
66396;BME280;53207;51.378;-1.342;2023-04-02T03:15:02;100723.35;;;20.02;34.41
66396;BME280;53207;51.378;-1.342;2023-04-02T03:17:35;100725.07;;;19.50;34.46
66396;BME280;53207;51.378;-1.342;2023-04-02T03:20:11;100727.94;;;19.81;34.37
66396;BME280;53207;51.378;-1.342;2023-04-02T03:22:43;100733.10;;;19.55;34.37
66396;BME280;53207;51.378;-1.342;2023-04-02T03:25:24;100738.07;;;19.32;34.60
66396;BME280;53207;51.378;-1.342;2023-04-02T03:27:57;100739.76;;;19.49;34.40
66396;BME280;53207;51.378;-1.342;2023-04-02T03:30:29;100740.82;;;19.26;34.63
66396;BME280;53207;51.378;-1.342;2023-04-02T03:33:02;100746.50;;;19.47;34.42
66396;BME280;53207;51.378;-1.342;2023-04-02T03:35:34;100745.35;;;19.44;34.42
66396;BME280;53207;51.378;-1.342;2023-04-02T03:38:06;100750.55;;;19.69;34.45
66396;BME280;53207;51.378;-1.342;2023-04-02T03:40:40;100751.00;;;19.72;34.39
66396;BME280;53207;51.378;-1.342;2023-04-02T03:43:15;100758.38;;;19.73;34.34
66396;BME280;53207;51.378;-1.342;2023-04-02T03:45:50;100765.11;;;19.45;34.36
66396;BME280;53207;51.378;-1.342;2023-04-02T03:48:23;100767.61;;;19.75;34.55
66396;BME280;53207;51.378;-1.342;2023-04-02T03:50:57;100768.55;;;19.65;34.42
66396;BME280;53207;51.378;-1.342;2023-04-02T03:53:27;100770.35;;;19.80;34.51
66396;BME280;53207;51.378;-1.342;2023-04-02T03:55:56;100772.75;;;19.56;34.52
66396;BME280;53207;51.378;-1.342;2023-04-02T03:58:27;100780.54;;;19.60;34.46
66396;BME280;53207;51.378;-1.342;2023-04-02T04:01:03;100781.91;;;19.52;34.55
66396;BME280;53207;51.378;-1.342;2023-04-02T04:03:38;100785.16;;;19.52;34.51
66396;BME280;53207;51.378;-1.342;2023-04-02T04:06:10;100786.26;;;19.85;34.35
66396;BME280;53207;51.378;-1.342;2023-04-02T04:08:43;100787.50;;;19.82;34.38
66396;BME280;53207;51.378;-1.342;2023-04-02T04:11:15;100792.16;;;19.74;34.45
66396;BME280;53207;51.378;-1.342;2023-04-02T04:13:48;100795.62;;;19.56;34.39
66396;BME280;53207;51.378;-1.342;2023-04-02T04:16:20;100798.52;;;19.41;34.56
66396;BME280;53207;51.378;-1.342;2023-04-02T04:18:53;100800.39;;;19.50;34.47
66396;BME280;53207;51.378;-1.342;2023-04-02T04:21:24;100800.55;;;19.61;34.54
66396;BME280;53207;51.378;-1.342;2023-04-02T04:23:52;100804.10;;;19.45;34.47
66396;BME280;53207;51.378;-1.342;2023-04-02T04:26:23;100808.73;;;19.59;34.31
66396;BME280;53207;51.378;-1.342;2023-04-02T04:28:58;100807.34;;;19.72;34.38
66396;BME280;53207;51.378;-1.342;2023-04-02T04:31:31;100805.78;;;19.54;34.33
66396;BME280;53207;51.378;-1.342;2023-04-02T04:34:06;100804.17;;;19.49;34.37
66396;BME280;53207;51.378;-1.342;2023-04-02T04:36:40;100804.16;;;19.75;34.30
66396;BME280;53207;51.378;-1.342;2023-04-02T04:39:12;100808.47;;;19.49;34.34
66396;BME280;53207;51.378;-1.342;2023-04-02T04:41:40;100819.49;;;19.18;34.38
66396;BME280;53207;51.378;-1.342;2023-04-02T04:44:14;100828.17;;;19.71;34.31
66396;BME280;53207;51.378;-1.342;2023-04-02T04:46:47;100835.13;;;19.26;34.61
66396;BME280;53207;51.378;-1.342;2023-04-02T04:49:19;100833.50;;;19.63;34.38
66396;BME280;53207;51.378;-1.342;2023-04-02T04:51:50;100835.48;;;19.56;34.44
66396;BME280;53207;51.378;-1.342;2023-04-02T04:54:23;100834.84;;;19.49;34.49
66396;BME280;53207;51.378;-1.342;2023-04-02T04:57:01;100841.74;;;19.33;34.41
66396;BME280;53207;51.378;-1.342;2023-04-02T04:59:32;100849.06;;;19.54;34.44
66396;BME280;53207;51.378;-1.342;2023-04-02T05:02:04;100847.72;;;19.36;34.36
66396;BME280;53207;51.378;-1.342;2023-04-02T05:04:35;100850.66;;;19.36;34.36
66396;BME280;53207;51.378;-1.342;2023-04-02T05:07:06;100853.87;;;19.24;34.49
66396;BME280;53207;51.378;-1.342;2023-04-02T05:09:37;100858.93;;;19.30;34.41
66396;BME280;53207;51.378;-1.342;2023-04-02T05:12:16;100860.98;;;19.20;34.50
66396;BME280;53207;51.378;-1.342;2023-04-02T05:14:49;100873.69;;;18.97;34.72
66396;BME280;53207;51.378;-1.342;2023-04-02T05:17:21;100882.89;;;19.30;34.59
66396;BME280;53207;51.378;-1.342;2023-04-02T05:19:55;100889.25;;;19.09;34.58
66396;BME280;53207;51.378;-1.342;2023-04-02T05:22:29;100889.47;;;18.97;34.72
66396;BME280;53207;51.378;-1.342;2023-04-02T05:25:11;100893.09;;;18.61;34.81
66396;BME280;53207;51.378;-1.342;2023-04-02T05:27:44;100896.53;;;19.39;34.45
66396;BME280;53207;51.378;-1.342;2023-04-02T05:30:31;100900.04;;;19.25;34.58
66396;BME280;53207;51.378;-1.342;2023-04-02T05:33:05;100902.50;;;19.33;34.49
66396;BME280;53207;51.378;-1.342;2023-04-02T05:35:44;100894.95;;;18.96;34.32
66396;BME280;53207;51.378;-1.342;2023-04-02T05:38:19;100899.45;;;19.07;34.49
66396;BME280;53207;51.378;-1.342;2023-04-02T05:40:50;100905.72;;;19.19;34.34
66396;BME280;53207;51.378;-1.342;2023-04-02T05:43:21;100911.87;;;19.17;34.59
66396;BME280;53207;51.378;-1.342;2023-04-02T05:45:53;100920.25;;;19.31;34.44
66396;BME280;53207;51.378;-1.342;2023-04-02T05:48:25;100929.67;;;19.24;34.51
66396;BME280;53207;51.378;-1.342;2023-04-02T05:50:55;100933.35;;;19.29;34.43
66396;BME280;53207;51.378;-1.342;2023-04-02T05:53:25;100932.50;;;19.05;34.44
66396;BME280;53207;51.378;-1.342;2023-04-02T05:55:57;100934.63;;;19.30;34.38
66396;BME280;53207;51.378;-1.342;2023-04-02T05:58:30;100938.81;;;19.25;34.44
66396;BME280;53207;51.378;-1.342;2023-04-02T06:01:05;100941.74;;;19.28;34.37
66396;BME280;53207;51.378;-1.342;2023-04-02T06:03:41;100944.55;;;19.22;34.46
66396;BME280;53207;51.378;-1.342;2023-04-02T06:06:15;100951.42;;;18.63;34.54
66396;BME280;53207;51.378;-1.342;2023-04-02T06:08:51;100955.28;;;19.12;34.51
66396;BME280;53207;51.378;-1.342;2023-04-02T06:11:23;100959.79;;;19.24;34.37
66396;BME280;53207;51.378;-1.342;2023-04-02T06:13:52;100959.35;;;19.20;34.39
66396;BME280;53207;51.378;-1.342;2023-04-02T06:16:20;100962.96;;;19.20;34.38
66396;BME280;53207;51.378;-1.342;2023-04-02T06:18:50;100968.16;;;19.13;34.45
66396;BME280;53207;51.378;-1.342;2023-04-02T06:21:20;100971.77;;;18.99;34.36
66396;BME280;53207;51.378;-1.342;2023-04-02T06:23:52;100977.59;;;18.95;34.38
66396;BME280;53207;51.378;-1.342;2023-04-02T06:26:25;100982.37;;;19.16;34.38
66396;BME280;53207;51.378;-1.342;2023-04-02T06:28:58;100986.89;;;18.87;34.47
66396;BME280;53207;51.378;-1.342;2023-04-02T06:31:33;100995.60;;;19.15;34.38
66396;BME280;53207;51.378;-1.342;2023-04-02T06:34:02;100998.88;;;19.11;34.41
66396;BME280;53207;51.378;-1.342;2023-04-02T06:36:31;101005.27;;;19.12;34.40
66396;BME280;53207;51.378;-1.342;2023-04-02T06:39:04;101006.32;;;19.08;34.43
66396;BME280;53207;51.378;-1.342;2023-04-02T06:41:33;101009.76;;;19.09;34.41
66396;BME280;53207;51.378;-1.342;2023-04-02T06:44:03;101015.85;;;19.10;34.38
66396;BME280;53207;51.378;-1.342;2023-04-02T06:46:35;101023.06;;;19.04;34.40
66396;BME280;53207;51.378;-1.342;2023-04-02T06:49:14;101026.15;;;19.01;34.45
66396;BME280;53207;51.378;-1.342;2023-04-02T06:51:44;101029.54;;;18.99;34.45
66396;BME280;53207;51.378;-1.342;2023-04-02T06:54:16;101037.63;;;19.02;34.40
66396;BME280;53207;51.378;-1.342;2023-04-02T06:56:45;101039.20;;;18.95;34.48
66396;BME280;53207;51.378;-1.342;2023-04-02T06:59:15;101045.04;;;18.94;34.52
66396;BME280;53207;51.378;-1.342;2023-04-02T07:01:45;101047.13;;;18.66;34.52
66396;BME280;53207;51.378;-1.342;2023-04-02T07:04:14;101048.51;;;18.52;34.99
66396;BME280;53207;51.378;-1.342;2023-04-02T07:06:42;101049.94;;;18.97;34.50
66396;BME280;53207;51.378;-1.342;2023-04-02T07:09:09;101046.50;;;19.09;34.36
66396;BME280;53207;51.378;-1.342;2023-04-02T07:11:36;101051.52;;;19.12;34.33
66396;BME280;53207;51.378;-1.342;2023-04-02T07:14:04;101055.74;;;19.25;34.22
66396;BME280;53207;51.378;-1.342;2023-04-02T07:16:32;101059.63;;;19.09;34.21
66396;BME280;53207;51.378;-1.342;2023-04-02T07:19:00;101067.66;;;19.47;34.12
66396;BME280;53207;51.378;-1.342;2023-04-02T07:21:28;101073.00;;;19.59;34.13
66396;BME280;53207;51.378;-1.342;2023-04-02T07:23:57;101076.04;;;19.70;34.20
66396;BME280;53207;51.378;-1.342;2023-04-02T07:26:25;101082.18;;;19.63;34.18
66396;BME280;53207;51.378;-1.342;2023-04-02T07:28:53;101083.54;;;19.97;34.19
66396;BME280;53207;51.378;-1.342;2023-04-02T07:31:23;101089.09;;;20.10;34.13
66396;BME280;53207;51.378;-1.342;2023-04-02T07:33:52;101090.41;;;19.99;34.10
66396;BME280;53207;51.378;-1.342;2023-04-02T07:36:22;101095.73;;;19.91;33.98
66396;BME280;53207;51.378;-1.342;2023-04-02T07:38:50;101101.86;;;20.10;33.84
66396;BME280;53207;51.378;-1.342;2023-04-02T07:41:17;101102.93;;;20.44;33.81
66396;BME280;53207;51.378;-1.342;2023-04-02T07:43:45;101111.27;;;20.34;33.67
66396;BME280;53207;51.378;-1.342;2023-04-02T07:46:13;101111.25;;;20.41;33.64
66396;BME280;53207;51.378;-1.342;2023-04-02T07:48:40;101113.06;;;20.55;33.51
66396;BME280;53207;51.378;-1.342;2023-04-02T07:51:15;101119.96;;;20.64;33.42
66396;BME280;53207;51.378;-1.342;2023-04-02T07:53:42;101118.43;;;20.68;33.37
66396;BME280;53207;51.378;-1.342;2023-04-02T07:56:13;101123.47;;;20.76;33.28
66396;BME280;53207;51.378;-1.342;2023-04-02T07:58:41;101126.56;;;20.56;33.25
66396;BME280;53207;51.378;-1.342;2023-04-02T08:01:15;101126.17;;;20.80;33.24
66396;BME280;53207;51.378;-1.342;2023-04-02T08:03:42;101125.28;;;20.23;33.32
66396;BME280;53207;51.378;-1.342;2023-04-02T08:06:10;101127.73;;;20.60;33.16
66396;BME280;53207;51.378;-1.342;2023-04-02T08:08:37;101132.47;;;20.61;33.16
66396;BME280;53207;51.378;-1.342;2023-04-02T08:11:05;101137.05;;;20.60;33.17
66396;BME280;53207;51.378;-1.342;2023-04-02T08:13:32;101142.83;;;20.58;33.18
66396;BME280;53207;51.378;-1.342;2023-04-02T08:16:00;101143.92;;;20.57;33.16
66396;BME280;53207;51.378;-1.342;2023-04-02T08:18:28;101146.30;;;20.78;33.16
66396;BME280;53207;51.378;-1.342;2023-04-02T08:20:57;101147.21;;;20.59;33.10
66396;BME280;53207;51.378;-1.342;2023-04-02T08:23:25;101152.08;;;20.79;33.11
66396;BME280;53207;51.378;-1.342;2023-04-02T08:25:53;101159.95;;;20.71;33.17
66396;BME280;53207;51.378;-1.342;2023-04-02T08:28:21;101158.43;;;20.52;33.36
66396;BME280;53207;51.378;-1.342;2023-04-02T08:30:49;101162.22;;;20.57;33.34
66396;BME280;53207;51.378;-1.342;2023-04-02T08:33:17;101161.58;;;20.29;33.40
66396;BME280;53207;51.378;-1.342;2023-04-02T08:35:45;101160.99;;;20.47;33.47
66396;BME280;53207;51.378;-1.342;2023-04-02T08:38:13;101168.03;;;20.17;33.54
66396;BME280;53207;51.378;-1.342;2023-04-02T08:40:43;101176.24;;;20.36;33.59
66396;BME280;53207;51.378;-1.342;2023-04-02T08:43:22;101184.24;;;20.59;33.66
66396;BME280;53207;51.378;-1.342;2023-04-02T08:46:03;101189.11;;;20.32;33.76
66396;BME280;53207;51.378;-1.342;2023-04-02T08:48:34;101196.10;;;20.24;33.84
66396;BME280;53207;51.378;-1.342;2023-04-02T08:51:04;101200.28;;;20.19;33.92
66396;BME280;53207;51.378;-1.342;2023-04-02T08:53:34;101205.75;;;20.28;33.85
66396;BME280;53207;51.378;-1.342;2023-04-02T08:56:08;101208.44;;;20.21;33.93
66396;BME280;53207;51.378;-1.342;2023-04-02T08:58:39;101211.99;;;20.30;33.85
66396;BME280;53207;51.378;-1.342;2023-04-02T09:01:10;101220.39;;;20.26;33.93
66396;BME280;53207;51.378;-1.342;2023-04-02T09:03:45;101230.45;;;20.29;33.92
66396;BME280;53207;51.378;-1.342;2023-04-02T09:06:16;101237.62;;;20.15;34.03
66396;BME280;53207;51.378;-1.342;2023-04-02T09:08:47;101243.30;;;20.01;33.98
66396;BME280;53207;51.378;-1.342;2023-04-02T09:11:21;101240.51;;;20.26;33.99
66396;BME280;53207;51.378;-1.342;2023-04-02T09:13:53;101241.08;;;20.30;33.94
66396;BME280;53207;51.378;-1.342;2023-04-02T09:16:33;101238.39;;;20.29;33.98
66396;BME280;53207;51.378;-1.342;2023-04-02T09:19:16;101239.03;;;20.45;34.09
66396;BME280;53207;51.378;-1.342;2023-04-02T09:21:53;101235.18;;;20.39;33.87
66396;BME280;53207;51.378;-1.342;2023-04-02T09:24:22;101236.00;;;20.36;33.94
66396;BME280;53207;51.378;-1.342;2023-04-02T09:26:49;101235.87;;;20.31;34.01
66396;BME280;53207;51.378;-1.342;2023-04-02T09:29:34;101241.05;;;20.30;34.03
66396;BME280;53207;51.378;-1.342;2023-04-02T09:32:11;101244.87;;;20.35;34.01
66396;BME280;53207;51.378;-1.342;2023-04-02T09:34:44;101255.89;;;20.40;33.97
66396;BME280;53207;51.378;-1.342;2023-04-02T09:37:16;101260.54;;;20.35;34.04
66396;BME280;53207;51.378;-1.342;2023-04-02T09:39:44;101261.53;;;20.29;34.12
66396;BME280;53207;51.378;-1.342;2023-04-02T09:42:30;101264.90;;;20.31;34.13
66396;BME280;53207;51.378;-1.342;2023-04-02T09:45:13;101268.26;;;20.39;34.06
66396;BME280;53207;51.378;-1.342;2023-04-02T09:47:40;101272.90;;;20.14;34.10
66396;BME280;53207;51.378;-1.342;2023-04-02T09:50:24;101270.85;;;20.67;34.07
66396;BME280;53207;51.378;-1.342;2023-04-02T09:52:53;101271.61;;;20.37;34.14
66396;BME280;53207;51.378;-1.342;2023-04-02T09:55:23;101269.43;;;20.36;34.17
66396;BME280;53207;51.378;-1.342;2023-04-02T09:58:05;101277.25;;;20.48;34.04
66396;BME280;53207;51.378;-1.342;2023-04-02T10:00:33;101271.92;;;20.35;34.22
66396;BME280;53207;51.378;-1.342;2023-04-02T10:03:03;101274.33;;;20.12;34.21
66396;BME280;53207;51.378;-1.342;2023-04-02T10:05:32;101278.19;;;20.31;34.27
66396;BME280;53207;51.378;-1.342;2023-04-02T10:08:15;101274.05;;;19.97;34.40
66396;BME280;53207;51.378;-1.342;2023-04-02T10:10:46;101281.86;;;20.04;34.61
66396;BME280;53207;51.378;-1.342;2023-04-02T10:13:20;101285.80;;;20.42;34.17
66396;BME280;53207;51.378;-1.342;2023-04-02T10:15:54;101284.87;;;19.94;34.47
66396;BME280;53207;51.378;-1.342;2023-04-02T10:18:32;101292.33;;;20.06;34.56
66396;BME280;53207;51.378;-1.342;2023-04-02T10:21:04;101302.06;;;20.35;34.53
66396;BME280;53207;51.378;-1.342;2023-04-02T10:23:32;101299.91;;;20.03;34.59
66396;BME280;53207;51.378;-1.342;2023-04-02T10:26:11;101305.95;;;19.92;34.71
66396;BME280;53207;51.378;-1.342;2023-04-02T10:28:54;101307.36;;;20.05;34.52
66396;BME280;53207;51.378;-1.342;2023-04-02T10:31:33;101313.19;;;20.20;34.35
66396;BME280;53207;51.378;-1.342;2023-04-02T10:34:17;101320.66;;;20.07;34.77
66396;BME280;53207;51.378;-1.342;2023-04-02T10:36:51;101328.06;;;19.96;34.58
66396;BME280;53207;51.378;-1.342;2023-04-02T10:39:22;101333.18;;;20.17;34.71
66396;BME280;53207;51.378;-1.342;2023-04-02T10:41:56;101335.70;;;19.90;34.63
66396;BME280;53207;51.378;-1.342;2023-04-02T10:44:33;101336.80;;;20.60;34.13
66396;BME280;53207;51.378;-1.342;2023-04-02T10:47:09;101336.13;;;20.18;34.21
66396;BME280;53207;51.378;-1.342;2023-04-02T10:49:43;101339.21;;;20.37;34.04
66396;BME280;53207;51.378;-1.342;2023-04-02T10:52:17;101348.45;;;19.72;34.24
66396;BME280;53207;51.378;-1.342;2023-04-02T10:54:49;101352.78;;;20.31;34.08
66396;BME280;53207;51.378;-1.342;2023-04-02T10:57:24;101349.31;;;20.44;33.87
66396;BME280;53207;51.378;-1.342;2023-04-02T10:59:56;101350.14;;;20.36;33.96
66396;BME280;53207;51.378;-1.342;2023-04-02T11:02:32;101351.25;;;20.27;34.06
66396;BME280;53207;51.378;-1.342;2023-04-02T11:05:06;101351.39;;;20.24;34.08
66396;BME280;53207;51.378;-1.342;2023-04-02T11:07:47;101351.15;;;20.37;33.92
66396;BME280;53207;51.378;-1.342;2023-04-02T11:10:19;101356.16;;;20.27;34.01
66396;BME280;53207;51.378;-1.342;2023-04-02T11:12:52;101359.11;;;20.33;33.92
66396;BME280;53207;51.378;-1.342;2023-04-02T11:15:21;101364.60;;;20.19;34.07
66396;BME280;53207;51.378;-1.342;2023-04-02T11:17:49;101366.88;;;20.28;33.95
66396;BME280;53207;51.378;-1.342;2023-04-02T11:21:00;101363.05;;;20.23;33.99
66396;BME280;53207;51.378;-1.342;2023-04-02T11:23:30;101363.13;;;20.09;34.15
66396;BME280;53207;51.378;-1.342;2023-04-02T11:26:38;101358.17;;;20.06;34.17
66396;BME280;53207;51.378;-1.342;2023-04-02T11:29:39;101361.28;;;20.03;34.21
66396;BME280;53207;51.378;-1.342;2023-04-02T11:32:35;101368.44;;;20.12;34.06
66396;BME280;53207;51.378;-1.342;2023-04-02T11:35:24;101373.80;;;20.09;34.10
66396;BME280;53207;51.378;-1.342;2023-04-02T11:37:54;101372.07;;;20.07;34.11
66396;BME280;53207;51.378;-1.342;2023-04-02T11:40:55;101377.88;;;20.01;34.14
66396;BME280;53207;51.378;-1.342;2023-04-02T11:44:31;101385.65;;;20.80;34.07
66396;BME280;53207;51.378;-1.342;2023-04-02T11:47:21;101383.58;;;19.76;34.39
66396;BME280;53207;51.378;-1.342;2023-04-02T11:50:00;101387.50;;;20.13;34.22
66396;BME280;53207;51.378;-1.342;2023-04-02T11:52:32;101389.90;;;20.00;34.06
66396;BME280;53207;51.378;-1.342;2023-04-02T11:55:16;101387.72;;;19.68;34.42
66396;BME280;53207;51.378;-1.342;2023-04-02T11:57:51;101395.64;;;19.78;34.29
66396;BME280;53207;51.378;-1.342;2023-04-02T12:00:39;101399.44;;;19.87;34.23
66396;BME280;53207;51.378;-1.342;2023-04-02T12:03:33;101398.93;;;19.96;34.10
66396;BME280;53207;51.378;-1.342;2023-04-02T12:06:11;101396.06;;;20.14;34.19
66396;BME280;53207;51.378;-1.342;2023-04-02T12:08:52;101397.58;;;19.91;34.13
66396;BME280;53207;51.378;-1.342;2023-04-02T12:11:31;101400.97;;;19.88;34.15
66396;BME280;53207;51.378;-1.342;2023-04-02T12:14:00;101409.01;;;19.97;34.04
66396;BME280;53207;51.378;-1.342;2023-04-02T12:16:32;101414.65;;;19.72;34.31
66396;BME280;53207;51.378;-1.342;2023-04-02T12:19:00;101415.05;;;20.19;34.10
66396;BME280;53207;51.378;-1.342;2023-04-02T12:21:28;101414.05;;;19.99;34.00
66396;BME280;53207;51.378;-1.342;2023-04-02T12:23:57;101412.91;;;19.87;34.13
66396;BME280;53207;51.378;-1.342;2023-04-02T12:26:29;101416.93;;;20.07;34.21
66396;BME280;53207;51.378;-1.342;2023-04-02T12:29:29;101410.04;;;20.45;34.00
66396;BME280;53207;51.378;-1.342;2023-04-02T12:31:57;101413.57;;;19.99;33.95
66396;BME280;53207;51.378;-1.342;2023-04-02T12:34:27;101418.38;;;20.06;33.86
66396;BME280;53207;51.378;-1.342;2023-04-02T12:36:57;101422.99;;;19.88;34.05
66396;BME280;53207;51.378;-1.342;2023-04-02T12:39:25;101424.08;;;20.34;34.08
66396;BME280;53207;51.378;-1.342;2023-04-02T12:41:53;101427.91;;;19.90;34.00
66396;BME280;53207;51.378;-1.342;2023-04-02T12:44:21;101428.06;;;20.22;33.93
66396;BME280;53207;51.378;-1.342;2023-04-02T12:46:50;101432.01;;;19.95;33.94
66396;BME280;53207;51.378;-1.342;2023-04-02T12:49:50;101427.40;;;20.30;33.83
66396;BME280;53207;51.378;-1.342;2023-04-02T12:52:20;101428.24;;;20.37;33.74
66396;BME280;53207;51.378;-1.342;2023-04-02T12:54:51;101426.49;;;20.06;33.80
66396;BME280;53207;51.378;-1.342;2023-04-02T12:57:21;101424.28;;;20.07;33.76
66396;BME280;53207;51.378;-1.342;2023-04-02T12:59:49;101423.91;;;20.13;33.62
66396;BME280;53207;51.378;-1.342;2023-04-02T13:02:19;101428.19;;;20.08;33.72
66396;BME280;53207;51.378;-1.342;2023-04-02T13:04:48;101431.51;;;20.12;33.67
66396;BME280;53207;51.378;-1.342;2023-04-02T13:07:17;101431.30;;;20.15;33.89
66396;BME280;53207;51.378;-1.342;2023-04-02T13:09:47;101425.12;;;20.09;33.96
66396;BME280;53207;51.378;-1.342;2023-04-02T13:12:25;101425.19;;;20.04;33.74